Latest Weather Observations for Mount Keith

IDW60801

Issued at 10:33 pm WST Monday 23 January 2017 (issued every 30 minutes, with the page automatically refreshed every 10 minutes)

About weather observations | Map of weather stations | Latest weather observations for WA | Other Formats
Station Details ID: 512019 Name: MOUNT KEITH Lat: -27.29 Lon: 120.55 Height: 542.33 m
Data from the previous 72 hours. | See also: Recent months for locations in Western Australia
Date/Time
WST
Temp
°C
App
Temp
°C
Dew
Point
°C
Rel
Hum
%
Delta-T
°C
Wind Press
QNH
hPa
Press
MSL
hPa
Rain since
9am
mm
Dir  Spd
km/h
Gust
km/h
Spd
kts
Gust
kts
23/10:30pm 29.9 26.7 9.9 29 11.6 SE 17 20 9 11 1013.4 1009.0 0.0
23/10:00pm 30.1 26.5 8.5 26 12.2 SE 17 20 9 11 1013.3 1008.8 0.0
23/09:30pm 31.0 27.0 8.1 24 12.9 SE 19 26 10 14 1013.0 1008.6 0.0
23/09:00pm 31.5 27.1 7.2 22 13.5 SSE 20 26 11 14 1012.7 1008.3 0.0
23/08:30pm 32.1 27.4 7.7 22 13.7 SSE 22 30 12 16 1012.3 1007.9 0.0
23/08:00pm 32.8 28.4 7.6 21 14.2 SSE 20 28 11 15 1012.0 1007.6 0.0
23/07:30pm 33.3 28.9 7.3 20 14.6 SSE 20 30 11 16 1011.3 1006.8 0.0
23/07:00pm 33.8 29.1 7.7 20 14.8 SSE 22 33 12 18 1010.7 1006.3 0.0
23/06:30pm 34.7 30.0 7.7 19 15.4 SSE 22 28 12 15 1010.1 1005.7 0.0
23/06:00pm 35.2 30.4 7.3 18 15.9 SSE 22 35 12 19 1009.7 1005.2 0.0
23/05:30pm 35.7 30.4 6.9 17 16.3 S 24 33 13 18 1009.4 1004.9 0.0
23/05:00pm 35.9 30.3 7.0 17 16.4 S 26 35 14 19 1009.1 1004.7 0.0
23/04:30pm 35.6 31.4 8.4 19 15.7 SSE 20 32 11 17 1009.1 1004.7 0.0
23/04:00pm 36.8 31.9 8.6 18 16.5 S 24 35 13 19 1009.1 1004.7 0.0
23/03:30pm 35.4 31.4 9.0 20 15.4 SSE 20 33 11 18 1009.4 1004.9 0.0
23/03:00pm 35.7 31.2 10.0 21 15.3 S 24 37 13 20 1009.5 1005.0 0.0
23/02:30pm 36.8 32.2 10.9 21 15.6 SSE 26 37 14 20 1009.7 1005.2 0.0
23/02:00pm 35.2 31.3 10.9 23 14.6 SSE 22 39 12 21 1010.0 1005.6 0.0
23/01:30pm 36.2 32.6 10.4 21 15.4 SSE 20 35 11 19 1010.2 1005.8 0.0
23/01:00pm 35.6 30.9 10.6 22 15.0 SSW 26 41 14 22 1010.3 1005.9 0.0
23/12:30pm 35.3 31.3 11.7 24 14.3 SSW 24 35 13 19 1010.5 1006.1 0.0
23/12:00pm 34.8 31.0 12.5 26 13.7 SSW 24 35 13 19 1010.7 1006.3 0.0
23/11:30am 33.8 30.8 13.8 30 12.4 SSW 22 33 12 18 1011.0 1006.6 0.0
23/11:00am 33.4 30.4 14.9 32 11.7 SSW 24 35 13 19 1011.0 1006.6 0.0
23/10:30am 32.3 30.0 15.7 36 10.6 S 22 32 12 17 1011.4 1006.9 0.0
23/10:00am 31.2 29.0 16.8 42 9.3 S 24 32 13 17 1011.4 1006.9 0.0
23/09:30am 30.6 28.9 18.0 47 8.2 S 24 35 13 19 1011.5 1007.0 0.0
23/09:00am 29.5 27.4 18.0 50 7.5 S 26 35 14 19 1011.4 1006.9 0.0
23/08:30am 29.2 26.0 14.2 40 9.2 SSW 24 37 13 20 1011.0 1006.6 0.0
23/08:00am 27.9 23.9 11.9 37 9.5 S 24 35 13 19 1011.0 1006.6 0.0
23/07:30am 27.3 22.6 12.1 39 9.0 SSW 28 39 15 21 1010.7 1006.3 0.0
23/07:00am 26.8 20.3 8.3 31 10.3 SSW 32 39 17 21 1010.3 1005.9 0.0
23/06:30am 26.4 21.4 6.4 28 10.7 SSW 22 32 12 17 1010.1 1005.7 0.0
23/06:00am 25.8 21.2 6.4 29 10.4 SW 20 30 11 16 1009.6 1005.1 0.0
23/05:30am 26.2 21.3 6.8 29 10.4 SSW 22 30 12 16 1009.1 1004.7 0.0
23/05:00am 26.5 21.2 7.0 29 10.6 SSW 24 35 13 19 1008.5 1004.1 0.0
23/04:30am 26.6 22.5 8.6 32 10.0 SW 20 24 11 13 1008.2 1003.7 0.0
23/04:00am 27.2 23.8 9.1 32 10.2 SSW 17 22 9 12 1008.0 1003.5 0.0
23/03:30am 27.3 24.4 10.9 36 9.5 SSW 17 20 9 11 1007.8 1003.3 0.0
23/03:00am 27.4 25.3 13.7 43 8.3 SSW 17 20 9 11 1007.7 1003.2 0.0
23/02:30am 26.3 27.6 19.2 65 4.7 W 11 13 6 7 1007.8 1003.3 0.0
23/02:00am 26.8 29.0 19.7 65 4.7 NW 7 11 4 6 1007.7 1003.2 0.0
23/01:30am 27.1 29.3 19.7 64 4.9 NW 7 11 4 6 1007.6 1003.1 0.0
23/01:00am 27.4 29.3 19.7 63 5.1 WNW 9 11 5 6 1007.6 1003.1 0.0
23/12:30am 28.0 30.3 19.8 61 5.5 NNW 7 11 4 6 1007.7 1003.2 0.0
23/12:00am 28.4 29.1 19.6 59 5.9 N 15 19 8 10 1007.9 1003.4 0.0
 
Date/Time
WST
Temp
°C
App
Temp
°C
Dew
Point
°C
Rel
Hum
%
Delta-T
°C
Wind Press
QNH
hPa
Press
MSL
hPa
Rain since
9am
mm
Dir  Spd
km/h
Gust
km/h
Spd
kts
Gust
kts
22/11:30pm 28.4 30.7 19.9 60 5.7 NE 7 11 4 6 1008.2 1003.7 0.0
22/11:00pm 28.9 29.7 19.8 58 6.1 NNE 15 22 8 12 1008.4 1004.0 0.0
22/10:30pm 29.5 29.2 19.5 55 6.7 NNE 20 24 11 13 1008.4 1004.0 0.0
22/10:00pm 30.0 29.6 19.4 53 7.1 N 20 30 11 16 1008.4 1004.0 0.0
22/09:30pm 30.2 29.4 19.3 52 7.2 NNE 22 30 12 16 1008.3 1003.9 0.0
22/09:00pm 31.5 31.2 19.2 48 8.2 NNE 19 28 10 15 1007.9 1003.4 0.0
22/08:30pm 32.6 31.1 17.6 40 9.8 NE 22 28 12 15 1007.5 1003.0 0.0
22/08:00pm 32.8 31.7 17.4 39 10.1 ENE 19 24 10 13 1006.8 1002.4 0.0
22/07:30pm 33.9 33.1 17.2 37 10.9 NE 17 20 9 11 1006.3 1001.8 0.0
22/07:00pm 34.2 33.5 16.5 34 11.5 ENE 15 20 8 11 1005.9 1001.4 0.0
22/06:30pm 34.3 33.7 16.6 34 11.5 ENE 15 20 8 11 1005.5 1001.0 0.0
22/06:00pm 34.8 34.6 16.6 33 11.9 SE 13 20 7 11 1005.0 1000.6 0.0
22/05:30pm 38.7 34.4 5.4 13 18.7 SW 17 26 9 14 1004.7 1000.2 0.0
22/05:00pm 39.0 33.4 5.6 13 18.9 SW 24 33 13 18 1004.4 999.9 0.0
22/04:30pm 38.5 34.4 6.3 14 18.3 WSW 17 24 9 13 1004.5 1000.0 0.0
22/04:00pm 39.2 33.5 6.8 14 18.7 WSW 26 37 14 20 1004.6 1000.1 0.0
22/03:30pm 39.2 34.3 6.8 14 18.6 WSW 22 32 12 17 1004.9 1000.5 0.0
22/03:00pm 39.5 35.0 7.1 14 18.8 W 20 32 11 17 1005.0 1000.6 0.0
22/02:30pm 39.3 35.2 7.9 15 18.3 WSW 19 33 10 18 1005.4 1000.9 0.0
22/02:00pm 38.8 34.9 9.4 17 17.5 WSW 20 41 11 22 1005.8 1001.3 0.0
22/01:30pm 39.9 37.2 10.2 17 18.0 SW 15 26 8 14 1005.9 1001.4 0.0
22/01:00pm 37.7 36.4 13.7 24 15.2 SW 13 26 7 14 1006.1 1001.6 0.0
22/12:30pm 37.6 35.7 14.2 25 14.8 WNW 17 28 9 15 1006.5 1002.0 0.0
22/12:00pm 37.5 35.4 14.7 25 14.6 WNW 19 35 10 19 1006.9 1002.5 0.0
22/11:30am 37.2 35.1 15.1 27 14.2 WNW 20 35 11 19 1007.4 1002.9 0.0
22/11:00am 36.9 35.3 16.5 30 13.3 NNW 20 32 11 17 1007.6 1003.1 0.0
22/10:30am 35.9 34.3 16.6 31 12.6 NW 20 35 11 19 1008.0 1003.5 0.0
22/10:00am 34.5 33.4 17.3 36 11.3 NNW 19 32 10 17 1008.3 1003.9 0.0
22/09:30am 33.5 32.4 17.2 37 10.6 N 19 33 10 18 1008.4 1004.0 0.0
22/09:00am 34.3 33.1 17.5 36 11.0 NNW 20 28 11 15 1008.5 1004.1 0.0
22/08:30am 32.3 31.0 18.1 42 9.3 N 22 32 12 17 1008.6 1004.2 0.0
22/08:00am 31.2 30.6 18.5 46 8.4 N 19 26 10 14 1008.8 1004.4 0.0
22/07:30am 30.4 29.8 18.8 50 7.7 N 20 30 11 16 1008.9 1004.5 0.0
22/07:00am 29.4 28.8 18.8 53 7.0 N 20 28 11 15 1008.9 1004.5 0.0
22/06:30am 28.6 28.5 18.7 55 6.5 N 17 28 9 15 1008.8 1004.4 0.0
22/06:00am 28.2 28.4 18.6 56 6.3 N 15 22 8 12 1008.4 1004.0 0.0
22/05:30am 28.0 28.8 19.0 58 5.9 NNE 13 19 7 10 1008.0 1003.5 0.0
22/05:00am 28.1 28.5 19.1 58 5.9 NNE 15 20 8 11 1007.6 1003.1 0.0
22/04:30am 28.1 27.5 18.8 57 6.1 NNE 20 26 11 14 1007.4 1002.9 0.0
22/04:00am 28.5 27.3 18.3 54 6.7 NNE 22 30 12 16 1007.0 1002.6 0.0
22/03:30am 28.7 27.3 17.9 52 7.0 NE 22 30 12 16 1006.8 1002.4 0.0
22/03:00am 29.1 28.2 18.2 51 7.1 NNE 20 26 11 14 1006.8 1002.4 0.0
22/02:30am 29.7 28.6 17.8 48 7.7 NNE 20 30 11 16 1006.9 1002.5 0.0
22/02:00am 29.8 28.8 17.6 48 7.9 NNE 19 22 10 12 1007.4 1002.9 0.0
22/01:30am 30.1 28.9 17.5 46 8.2 NNE 20 28 11 15 1007.3 1002.8 0.0
22/01:00am 30.6 29.4 16.2 41 9.2 NNE 17 22 9 12 1007.4 1002.9 0.0
22/12:30am 31.0 30.2 16.2 41 9.4 NNE 15 20 8 11 1007.5 1003.0 0.0
22/12:00am 31.3 31.8 18.3 46 8.6 NNE 13 19 7 10 1007.7 1003.2 0.0
 
Date/Time
WST
Temp
°C
App
Temp
°C
Dew
Point
°C
Rel
Hum
%
Delta-T
°C
Wind Press
QNH
hPa
Press
MSL
hPa
Rain since
9am
mm
Dir  Spd
km/h
Gust
km/h
Spd
kts
Gust
kts
21/11:30pm 31.5 31.1 18.1 44 8.8 N 17 22 9 12 1007.7 1003.2 0.0
21/11:00pm 31.8 31.4 18.0 43 9.1 N 17 22 9 12 1007.7 1003.2 0.0
21/10:30pm 32.3 31.4 17.7 41 9.6 N 19 24 10 13 1007.4 1002.9 0.0
21/10:00pm 33.0 31.4 15.9 35 11.0 NNE 19 28 10 15 1007.1 1002.7 0.0
21/09:30pm 33.8 31.3 12.2 27 13.1 NE 17 22 9 12 1007.3 1002.8 0.0
21/09:00pm 34.2 31.4 12.5 27 13.3 NE 19 24 10 13 1007.3 1002.8 0.0
21/08:30pm 34.2 32.5 12.5 27 13.3 E 13 19 7 10 1006.7 1002.3 0.0
21/08:00pm 34.5 33.1 12.2 26 13.6 ENE 11 17 6 9 1006.6 1002.2 0.0
21/07:30pm 34.6 32.9 12.3 26 13.6 E 13 17 7 9 1006.2 1001.7 0.0
21/07:00pm 35.2 33.0 12.2 25 14.1 E 15 20 8 11 1006.0 1001.5 0.0
21/06:30pm 35.8 33.8 12.7 25 14.3 ESE 15 22 8 12 1005.7 1001.2 0.0
21/06:00pm 36.1 35.0 13.0 25 14.4 SSE 11 19 6 10 1005.5 1001.0 0.0
21/05:30pm 36.8 36.0 12.9 24 14.8 E 9 15 5 8 1005.0 1000.6 0.0
21/05:00pm 36.5 35.1 13.3 25 14.5 E 13 17 7 9 1004.9 1000.5 0.0
21/04:30pm 36.8 36.0 12.9 24 14.8 SSE 9 19 5 10 1004.7 1000.2 0.0
21/04:00pm 36.9 36.1 13.0 24 14.9 NW 9 13 5 7 1004.6 1000.1 0.0
21/03:30pm 36.5 36.0 13.9 26 14.2 SE 9 20 5 11 1004.8 1000.3 0.0
21/03:00pm 36.6 34.6 14.0 26 14.3 SSE 17 28 9 15 1005.4 1000.9 0.0
21/02:30pm 36.8 35.1 13.5 24 14.6 SSW 15 28 8 15 1005.6 1001.1 0.0
21/02:00pm 36.8 36.2 14.7 26 14.1 NW 11 20 6 11 1005.9 1001.4 0.0
21/01:30pm 35.2 34.2 15.5 30 12.6 ENE 15 20 8 11 1006.5 1002.0 0.0
21/01:00pm 34.4 34.0 15.3 31 12.2 WNW 11 20 6 11 1007.0 1002.6 0.0
21/12:30pm 34.9 34.3 15.7 31 12.3 N 13 20 7 11 1007.6 1003.1 0.0
21/12:00pm 33.5 33.4 15.9 34 11.3 E 11 17 6 9 1007.9 1003.4 0.0
21/11:30am 33.1 32.6 16.0 35 11.0 NE 13 22 7 12 1008.4 1004.0 0.0
21/11:00am 32.9 32.5 16.3 37 10.7 E 13 20 7 11 1008.8 1004.4 0.0
21/10:30am 31.8 31.3 16.9 40 9.6 E 15 24 8 13 1009.1 1004.7 0.0
21/10:00am 30.9 30.5 17.2 43 8.9 ENE 15 20 8 11 1009.5 1005.0 0.0
21/09:30am 29.9 29.4 17.0 45 8.3 ENE 15 24 8 13 1009.8 1005.3 0.0
21/09:00am 29.6 28.4 17.1 47 8.1 NE 19 26 10 14 1009.8 1005.3 0.0
21/08:30am 28.5 27.0 16.4 48 7.7 NE 19 28 10 15 1010.1 1005.7 0.0
21/08:00am 27.6 25.9 16.2 49 7.2 NE 20 30 11 16 1010.1 1005.7 0.0
21/07:30am 27.2 25.5 16.2 51 6.9 ENE 20 28 11 15 1010.1 1005.7 0.0
21/07:00am 26.5 24.2 15.8 51 6.7 E 22 30 12 16 1010.0 1005.6 0.0
21/06:30am 25.5 23.2 15.8 55 6.0 E 22 30 12 16 1009.9 1005.4 0.0
21/06:00am 25.2 24.4 16.1 57 5.7 E 15 20 8 11 1009.7 1005.2 0.0
21/05:30am 24.7 23.9 16.2 59 5.3 E 15 20 8 11 1009.3 1004.8 0.0
21/05:00am 25.0 24.6 16.2 58 5.5 E 13 17 7 9 1008.7 1004.3 0.0
21/04:30am 25.2 25.1 16.1 57 5.7 E 11 15 6 8 1008.4 1004.0 0.0
21/04:00am 25.7 25.0 16.3 56 5.9 E 15 20 8 11 1007.9 1003.4 0.0
21/03:30am 26.3 25.2 16.3 54 6.3 E 17 22 9 12 1007.9 1003.4 0.0
21/03:00am 26.7 24.6 16.3 53 6.6 E 22 30 12 16 1007.8 1003.3 0.0
21/02:30am 27.2 25.5 16.2 51 6.9 E 20 30 11 16 1007.8 1003.3 0.0
21/02:00am 27.7 26.6 16.3 49 7.2 E 17 22 9 12 1007.6 1003.1 0.0
21/01:30am 28.4 27.3 16.3 47 7.7 E 17 26 9 14 1007.6 1003.1 0.0
21/01:00am 29.0 27.8 16.2 46 8.1 E 17 26 9 14 1007.6 1003.1 0.0
21/12:30am 29.6 28.4 16.1 44 8.6 E 17 22 9 12 1007.7 1003.2 0.0
21/12:00am 30.0 28.3 15.7 42 9.1 E 19 30 10 16 1007.7 1003.2 0.0
 
Date/Time
WST
Temp
°C
App
Temp
°C
Dew
Point
°C
Rel
Hum
%
Delta-T
°C
Wind Press
QNH
hPa
Press
MSL
hPa
Rain since
9am
mm
Dir  Spd
km/h
Gust
km/h
Spd
kts
Gust
kts
20/11:30pm 30.2 28.6 15.1 40 9.5 ESE 17 24 9 13 1007.7 1003.2 0.0
20/11:00pm 30.6 28.8 15.5 40 9.5 SE 19 24 10 13 1007.8 1003.3 0.0

Other Formats:

Comma delimited format used in spreadsheet applications
http://www.bom.gov.au/fwo/IDW60801/IDW60801.99434.axf

JavaScript Object Notation format (JSON) in row-major order
http://www.bom.gov.au/fwo/IDW60801/IDW60801.99434.json